Time;durP1;ratioP1;P1;durP2;ratioP2;P2;SDS_P1;SDS_P2;PMS_P1;PMS_P2;Temp;Humidity;BMP_temperature;BMP_pressure;BME280_temperature;BME280_humidity;BME280_pressure;Samples;Min_cycle;Max_cycle;Signal;HPM_P1;HPM_P2
2022/07/12 00:01:53;;;;;;;1.83;1.27;;;18.70;92.90;;;;;;6179057;28;20563;-83
2022/07/12 00:04:55;;;;;;;2.13;1.10;;;18.70;93.00;;;;;;6190065;28;20057;-84
2022/07/12 00:07:56;;;;;;;3.60;1.52;;;18.70;93.00;;;;;;6183651;28;20042;-85
2022/07/12 00:10:58;;;;;;;1.40;1.10;;;18.70;92.90;;;;;;6204679;28;20345;-83
2022/07/12 00:14:01;;;;;;;3.30;1.73;;;18.70;92.80;;;;;;6206272;28;20046;-85
2022/07/12 00:17:04;;;;;;;2.20;1.55;;;18.60;92.80;;;;;;6202721;28;20058;-83
2022/07/12 00:20:07;;;;;;;3.15;1.50;;;18.60;93.00;;;;;;6202523;28;20615;-84
2022/07/12 00:23:09;;;;;;;4.70;1.30;;;18.60;93.30;;;;;;6202115;28;20054;-84
2022/07/12 00:26:10;;;;;;;2.35;1.30;;;18.60;93.40;;;;;;6202596;28;20073;-84
2022/07/12 00:29:13;;;;;;;1.85;1.45;;;18.60;93.40;;;;;;6201947;28;20050;-83
2022/07/12 00:32:15;;;;;;;3.88;1.20;;;18.50;93.50;;;;;;6219944;23;20046;-79
2022/07/12 00:35:17;;;;;;;3.28;2.13;;;18.50;93.50;;;;;;6206358;28;20464;-79
2022/07/12 00:38:19;;;;;;;1.63;1.10;;;18.50;93.60;;;;;;6207264;28;20046;-78
2022/07/12 00:41:21;;;;;;;2.20;1.48;;;18.50;93.70;;;;;;6206828;28;20046;-80
2022/07/12 00:44:26;;;;;;;1.80;1.35;;;18.40;93.80;;;;;;6205430;28;20046;-79
2022/07/12 00:47:33;;;;;;;4.30;1.60;;;18.40;94.00;;;;;;6204628;28;20043;-79
2022/07/12 00:50:35;;;;;;;4.60;1.52;;;18.40;94.10;;;;;;6206889;28;20431;-79
2022/07/12 00:53:37;;;;;;;5.93;1.50;;;18.30;94.20;;;;;;6205057;28;20050;-80
2022/07/12 00:56:39;;;;;;;4.85;1.15;;;18.30;94.30;;;;;;6206085;28;20054;-79
2022/07/12 00:59:43;;;;;;;2.25;1.50;;;18.30;94.50;;;;;;6205750;28;20054;-79
2022/07/12 01:02:46;;;;;;;3.78;1.10;;;18.20;94.40;;;;;;6205146;28;20061;-78
2022/07/12 01:05:48;;;;;;;2.72;1.10;;;18.20;94.50;;;;;;6205465;28;20046;-79
2022/07/12 01:08:50;;;;;;;1.50;0.90;;;18.20;94.40;;;;;;6205601;28;20042;-79
2022/07/12 01:11:52;;;;;;;2.40;1.40;;;18.20;94.50;;;;;;6205505;28;20057;-79
2022/07/12 01:14:55;;;;;;;3.92;1.25;;;18.20;94.70;;;;;;6205249;28;20444;-78
2022/07/12 01:17:59;;;;;;;2.20;1.10;;;18.10;94.70;;;;;;6204653;28;20603;-79
2022/07/12 01:21:05;;;;;;;2.90;1.65;;;18.10;94.70;;;;;;6202314;28;20419;-79
2022/07/12 01:24:10;;;;;;;2.35;0.95;;;18.00;94.70;;;;;;6204527;28;20053;-81
2022/07/12 01:27:13;;;;;;;2.42;1.20;;;18.00;94.80;;;;;;6203323;28;20038;-80
2022/07/12 01:30:14;;;;;;;10.98;1.50;;;18.00;94.80;;;;;;6204943;28;20050;-80
2022/07/12 01:33:16;;;;;;;3.03;1.80;;;18.00;94.90;;;;;;6204439;28;20042;-79
2022/07/12 01:36:18;;;;;;;2.25;1.20;;;18.00;95.10;;;;;;6204669;28;20499;-79
2022/07/12 01:39:21;;;;;;;2.70;1.52;;;17.90;95.10;;;;;;6203786;28;20038;-79
2022/07/12 01:42:24;;;;;;;3.25;1.25;;;17.80;95.10;;;;;;6204180;28;20054;-79
2022/07/12 01:45:26;;;;;;;3.85;1.30;;;17.80;95.20;;;;;;6202525;28;20065;-80
2022/07/12 01:48:29;;;;;;;1.80;1.30;;;17.70;95.40;;;;;;6201486;28;20046;-80
2022/07/12 01:51:32;;;;;;;1.95;0.90;;;17.70;95.40;;;;;;6201823;28;20038;-79
2022/07/12 01:54:36;;;;;;;2.42;1.40;;;17.70;95.50;;;;;;6202626;28;20061;-79
2022/07/12 01:57:39;;;;;;;2.28;1.10;;;17.60;95.50;;;;;;6200480;28;20054;-82
2022/07/12 02:00:40;;;;;;;4.30;1.52;;;17.50;95.80;;;;;;6201054;28;20051;-79
2022/07/12 02:03:42;;;;;;;4.03;1.67;;;17.50;95.70;;;;;;6202437;28;20038;-79
2022/07/12 02:06:45;;;;;;;1.58;0.93;;;17.50;95.70;;;;;;6202873;28;20412;-79
2022/07/12 02:09:48;;;;;;;2.20;1.30;;;17.40;95.70;;;;;;6201352;28;20050;-79
2022/07/12 02:12:49;;;;;;;4.60;1.52;;;17.30;95.90;;;;;;6201431;28;20042;-78
2022/07/12 02:15:51;;;;;;;1.52;1.00;;;17.30;96.10;;;;;;6200613;28;20046;-78
2022/07/12 02:18:53;;;;;;;4.55;1.83;;;17.30;96.20;;;;;;6201133;28;20053;-79
2022/07/12 02:21:55;;;;;;;3.10;1.90;;;17.30;96.30;;;;;;6202994;28;20050;-80
2022/07/12 02:24:58;;;;;;;5.30;2.17;;;17.30;96.60;;;;;;6202718;28;20420;-79
2022/07/12 02:28:00;;;;;;;2.30;1.13;;;17.30;96.50;;;;;;6203354;28;20046;-80
2022/07/12 02:31:01;;;;;;;2.45;1.48;;;17.30;96.60;;;;;;6202742;28;20050;-79
2022/07/12 02:34:05;;;;;;;2.58;1.52;;;17.40;96.70;;;;;;6200334;28;20057;-78
2022/07/12 02:37:06;;;;;;;4.18;1.38;;;17.40;96.80;;;;;;6200600;28;20042;-78
2022/07/12 02:43:31;;;;;;;4.03;1.30;;;17.50;96.70;;;;;;6202182;28;20046;-79
2022/07/12 02:46:33;;;;;;;2.15;1.83;;;17.50;97.10;;;;;;6202500;28;20051;-79
2022/07/12 02:49:35;;;;;;;2.40;1.63;;;17.50;96.70;;;;;;6200998;28;20047;-78
2022/07/12 02:52:37;;;;;;;3.45;1.25;;;17.50;96.80;;;;;;6200193;28;20423;-79
2022/07/12 02:55:40;;;;;;;1.42;1.20;;;17.50;96.70;;;;;;6201473;28;20042;-79
2022/07/12 02:58:42;;;;;;;2.17;1.65;;;17.50;96.80;;;;;;6202081;28;20484;-79
2022/07/12 03:01:43;;;;;;;1.58;1.33;;;17.50;96.70;;;;;;6201705;28;20046;-78
2022/07/12 03:04:45;;;;;;;5.30;1.23;;;17.50;96.70;;;;;;6203014;28;20054;-79
2022/07/12 03:07:47;;;;;;;2.80;1.50;;;17.40;96.70;;;;;;6202816;28;20046;-79
2022/07/12 03:10:50;;;;;;;2.00;1.30;;;17.50;96.80;;;;;;6202759;28;20054;-80
2022/07/12 03:13:52;;;;;;;1.33;0.88;;;17.50;97.00;;;;;;6203903;28;20050;-80
2022/07/12 03:16:53;;;;;;;2.25;1.33;;;17.40;96.70;;;;;;6202707;28;20522;-80
2022/07/12 03:19:55;;;;;;;2.05;0.90;;;17.40;96.80;;;;;;6201996;28;20054;-79
2022/07/12 03:22:57;;;;;;;3.42;1.10;;;17.40;96.70;;;;;;6202283;28;20051;-79
2022/07/12 03:26:00;;;;;;;1.65;1.10;;;17.40;96.60;;;;;;6203055;28;20047;-79
2022/07/12 03:29:02;;;;;;;2.10;1.38;;;17.40;96.70;;;;;;6204041;28;20135;-81
2022/07/12 03:32:05;;;;;;;1.90;1.10;;;17.40;96.70;;;;;;6201210;28;20121;-83
2022/07/12 03:35:09;;;;;;;1.98;0.80;;;17.40;96.70;;;;;;6203190;28;20054;-83
2022/07/12 03:38:10;;;;;;;2.15;1.08;;;17.30;96.60;;;;;;6204743;28;20411;-81
2022/07/12 03:41:13;;;;;;;14.02;3.45;;;17.30;96.70;;;;;;6203333;28;20050;-84
2022/07/12 03:44:15;;;;;;;23.20;5.40;;;17.30;96.60;;;;;;6207416;28;20046;-82
2022/07/12 03:47:17;;;;;;;6.40;1.83;;;17.20;96.60;;;;;;6205380;28;20048;-81
2022/07/12 03:50:18;;;;;;;3.45;1.33;;;17.20;96.70;;;;;;6206531;28;20415;-84
2022/07/12 03:53:20;;;;;;;5.35;1.27;;;17.10;96.60;;;;;;6206705;28;20052;-83
2022/07/12 03:59:43;;;;;;;4.15;1.38;;;17.00;96.70;;;;;;6204264;28;20046;-82
2022/07/12 04:02:45;;;;;;;1.52;1.00;;;17.10;96.80;;;;;;6202208;28;20061;-81
2022/07/12 04:05:47;;;;;;;1.63;0.98;;;17.00;96.70;;;;;;6201902;28;20060;-81
2022/07/12 04:08:48;;;;;;;2.22;1.27;;;17.10;96.80;;;;;;6201816;28;20068;-81
2022/07/12 04:11:52;;;;;;;7.03;1.73;;;17.10;96.80;;;;;;6205635;28;20053;-81
2022/07/12 04:14:53;;;;;;;6.07;1.38;;;17.10;96.90;;;;;;6208463;28;20057;-82
2022/07/12 04:17:55;;;;;;;7.35;1.40;;;17.20;97.10;;;;;;6212053;28;20056;-80
2022/07/12 04:21:04;;;;;;;3.15;1.23;;;17.20;97.10;;;;;;6208616;28;20080;-81
2022/07/12 04:24:07;;;;;;;2.05;1.10;;;17.70;96.80;;;;;;6208966;28;20050;-83
2022/07/12 04:27:10;;;;;;;5.88;1.88;;;18.00;96.00;;;;;;6208963;28;20053;-81
2022/07/12 04:30:12;;;;;;;3.30;1.73;;;18.10;95.80;;;;;;6209943;28;20073;-82
2022/07/12 04:33:14;;;;;;;1.67;1.05;;;18.00;95.90;;;;;;6209058;28;20123;-84
2022/07/12 04:36:16;;;;;;;3.45;1.30;;;17.70;96.40;;;;;;6208081;28;20047;-81
2022/07/12 04:39:31;;;;;;;2.05;1.33;;;17.60;97.00;;;;;;6206684;28;20507;-81
2022/07/12 04:42:34;;;;;;;1.52;1.27;;;17.50;97.20;;;;;;6210573;28;20069;-83
2022/07/12 04:45:36;;;;;;;1.60;1.10;;;17.90;97.30;;;;;;6209462;28;20061;-82
2022/07/12 04:48:38;;;;;;;3.55;1.38;;;19.50;95.20;;;;;;6209280;28;20054;-82
2022/07/12 04:51:39;;;;;;;1.77;1.27;;;21.60;91.50;;;;;;6208419;28;20551;-81
2022/07/12 04:54:41;;;;;;;1.90;0.90;;;23.70;85.80;;;;;;6208234;28;20046;-80
2022/07/12 04:57:44;;;;;;;2.55;1.33;;;25.40;77.90;;;;;;6208802;28;20042;-82
2022/07/12 05:00:46;;;;;;;1.30;0.80;;;26.70;70.30;;;;;;6210699;28;20046;-80
2022/07/12 05:03:48;;;;;;;1.85;0.85;;;27.40;65.40;;;;;;6208151;28;20046;-80
2022/07/12 05:06:50;;;;;;;1.60;1.00;;;27.80;62.60;;;;;;6202291;28;20052;-80
2022/07/12 05:09:52;;;;;;;5.00;1.00;;;28.20;60.20;;;;;;6201226;28;20062;-80
2022/07/12 05:12:55;;;;;;;2.17;0.90;;;28.70;58.80;;;;;;6201147;28;20405;-83
2022/07/12 05:15:56;;;;;;;2.58;0.85;;;29.50;56.80;;;;;;6204582;28;20039;-80
2022/07/12 05:18:58;;;;;;;2.30;0.82;;;30.50;54.40;;;;;;6202174;28;20058;-80
2022/07/12 05:22:00;;;;;;;1.70;0.80;;;31.20;51.50;;;;;;6202131;28;20050;-82
2022/07/12 05:25:01;;;;;;;5.05;0.70;;;31.80;50.20;;;;;;6200862;28;20042;-80
2022/07/12 05:28:05;;;;;;;1.85;0.52;;;32.20;48.20;;;;;;6200399;28;20043;-81
2022/07/12 05:31:10;;;;;;;1.35;0.77;;;32.00;47.10;;;;;;6201204;28;20058;-80
2022/07/12 05:34:12;;;;;;;2.00;0.80;;;31.70;47.40;;;;;;6202763;28;20054;-80
2022/07/12 05:37:13;;;;;;;1.42;0.70;;;31.90;46.90;;;;;;6202637;28;20046;-80
2022/07/12 05:40:15;;;;;;;1.30;0.70;;;32.50;46.60;;;;;;6201435;28;20057;-80
2022/07/12 05:43:18;;;;;;;1.23;0.85;;;33.10;44.80;;;;;;6201819;28;20038;-81
2022/07/12 05:46:20;;;;;;;3.45;0.95;;;33.60;42.80;;;;;;6203139;28;20401;-80
2022/07/12 05:49:22;;;;;;;1.88;0.75;;;33.40;42.50;;;;;;6201852;28;20526;-80
2022/07/12 05:55:44;;;;;;;0.82;0.60;;;32.70;43.30;;;;;;6201404;28;20038;-81
2022/07/12 05:58:47;;;;;;;0.73;0.40;;;33.50;42.10;;;;;;6206906;28;20050;-80
2022/07/12 06:01:49;;;;;;;1.73;0.43;;;34.40;41.30;;;;;;6201585;28;20056;-80
2022/07/12 06:04:51;;;;;;;1.25;0.50;;;35.20;40.20;;;;;;6203461;28;20046;-80
2022/07/12 06:07:53;;;;;;;1.75;0.47;;;35.90;38.60;;;;;;6203978;28;20046;-80
2022/07/12 06:10:55;;;;;;;2.50;0.70;;;36.60;37.70;;;;;;6202255;28;20054;-80
2022/07/12 06:13:58;;;;;;;0.63;0.38;;;36.80;37.10;;;;;;6199804;28;20057;-80
2022/07/12 06:17:00;;;;;;;0.63;0.30;;;37.10;36.30;;;;;;6199249;28;20047;-80
2022/07/12 06:20:02;;;;;;;3.03;0.60;;;37.30;36.10;;;;;;6198765;28;20508;-80
2022/07/12 06:23:04;;;;;;;2.38;0.60;;;37.70;35.40;;;;;;6198338;28;20083;-80
2022/07/12 06:26:05;;;;;;;0.45;0.30;;;37.30;35.30;;;;;;6199052;28;20061;-80
2022/07/12 06:29:09;;;;;;;2.67;0.57;;;37.10;35.90;;;;;;6199429;28;20050;-81
2022/07/12 06:32:10;;;;;;;0.70;0.40;;;37.80;35.20;;;;;;6222486;23;20051;-85
2022/07/12 06:35:12;;;;;;;1.95;0.30;;;38.30;34.80;;;;;;6198629;28;20046;-84
2022/07/12 06:38:14;;;;;;;1.17;0.70;;;38.10;35.00;;;;;;6198848;28;20050;-84
2022/07/12 06:41:15;;;;;;;0.50;0.35;;;37.90;34.70;;;;;;6208747;28;20106;-83
2022/07/12 06:44:18;;;;;;;1.52;0.45;;;37.40;35.60;;;;;;6210965;28;20056;-85
2022/07/12 06:47:20;;;;;;;0.35;0.30;;;37.00;36.00;;;;;;6198398;28;20572;-85
2022/07/12 06:50:22;;;;;;;1.35;0.60;;;37.30;36.10;;;;;;6199229;28;20137;-85
2022/07/12 06:53:24;;;;;;;0.60;0.32;;;38.00;35.00;;;;;;6198829;28;20061;-85
2022/07/12 06:56:26;;;;;;;0.50;0.30;;;38.40;34.60;;;;;;6199098;28;20047;-85
2022/07/12 06:59:29;;;;;;;2.00;0.28;;;38.90;34.20;;;;;;6198138;28;20043;-85
2022/07/12 07:02:31;;;;;;;1.42;0.38;;;39.60;33.00;;;;;;6198115;28;20423;-85
2022/07/12 07:05:33;;;;;;;0.52;0.30;;;39.40;33.00;;;;;;6198374;28;20047;-84
2022/07/12 07:08:34;;;;;;;1.17;0.35;;;39.40;32.90;;;;;;6146948;28;20497;-86
2022/07/12 07:11:36;;;;;;;0.28;0.20;;;39.30;32.70;;;;;;6197641;28;20053;-82
2022/07/12 07:14:39;;;;;;;0.43;0.40;;;39.30;32.40;;;;;;6191374;28;20520;-82
2022/07/12 07:17:42;;;;;;;1.63;0.43;;;36.60;34.60;;;;;;6154664;28;20039;-83
2022/07/12 07:20:43;;;;;;;3.53;0.40;;;33.70;37.80;;;;;;6153685;28;20564;-82
2022/07/12 07:23:45;;;;;;;2.17;0.38;;;31.50;41.20;;;;;;6153913;28;20039;-82
2022/07/12 07:26:47;;;;;;;1.52;0.30;;;29.90;43.90;;;;;;6153725;28;20057;-80
2022/07/12 07:33:10;;;;;;;0.35;0.20;;;28.50;46.60;;;;;;6152603;28;20505;-82
2022/07/12 07:36:11;;;;;;;0.30;0.10;;;27.90;47.40;;;;;;6152883;28;20519;-82
2022/07/12 07:39:13;;;;;;;1.08;0.20;;;27.40;48.30;;;;;;6152919;28;20079;-82
2022/07/12 07:42:15;;;;;;;1.25;0.40;;;27.00;49.70;;;;;;6161817;28;20051;-81
2022/07/12 07:45:18;;;;;;;1.77;0.10;;;26.80;50.20;;;;;;6162189;28;20501;-81
2022/07/12 07:48:20;;;;;;;0.32;0.10;;;26.60;51.10;;;;;;6161508;28;20084;-83
2022/07/12 07:51:22;;;;;;;3.88;0.15;;;26.60;50.70;;;;;;6164109;28;20046;-82
2022/07/12 07:54:23;;;;;;;3.30;0.40;;;26.60;51.00;;;;;;6159793;28;20055;-83
2022/07/12 07:57:25;;;;;;;0.22;0.08;;;26.60;51.40;;;;;;6158151;28;20043;-82
2022/07/12 08:00:29;;;;;;;0.80;0.10;;;26.80;49.70;;;;;;6157416;28;20398;-82
2022/07/12 08:03:31;;;;;;;0.32;0.20;;;26.80;49.40;;;;;;6158439;28;20047;-83
2022/07/12 08:06:32;;;;;;;1.02;0.10;;;26.80;49.50;;;;;;6158478;28;20130;-82
2022/07/12 08:09:34;;;;;;;0.68;0.15;;;26.60;49.60;;;;;;6157087;28;20050;-81
2022/07/12 08:12:36;;;;;;;1.08;0.20;;;26.60;50.60;;;;;;6176076;28;20062;-80
2022/07/12 08:15:39;;;;;;;0.70;0.05;;;26.70;50.20;;;;;;6180228;28;20047;-82
2022/07/12 08:18:41;;;;;;;0.05;0.00;;;26.80;50.30;;;;;;6180953;28;20118;-81
2022/07/12 08:21:42;;;;;;;0.38;0.10;;;26.90;50.30;;;;;;6179064;28;20138;-81
2022/07/12 08:24:44;;;;;;;1.08;0.10;;;26.80;50.50;;;;;;6179247;28;20053;-85
2022/07/12 08:27:46;;;;;;;0.40;0.15;;;26.90;50.60;;;;;;6177881;28;20425;-84
2022/07/12 08:30:49;;;;;;;0.43;0.20;;;26.90;51.00;;;;;;6179715;28;20046;-81
2022/07/12 08:33:52;;;;;;;2.55;0.17;;;27.60;49.90;;;;;;6188795;28;20113;-83
2022/07/12 08:36:54;;;;;;;0.00;0.00;;;27.90;48.00;;;;;;6190709;28;20122;-83
2022/07/12 08:39:55;;;;;;;2.17;0.30;;;28.10;47.30;;;;;;6174596;28;20419;-83
2022/07/12 08:42:59;;;;;;;0.40;0.10;;;28.00;48.20;;;;;;6200328;28;20122;-83
2022/07/12 08:46:06;;;;;;;0.25;0.10;;;28.20;47.40;;;;;;6156737;28;20117;-83
2022/07/12 08:49:09;;;;;;;0.63;0.10;;;28.40;47.30;;;;;;6176339;28;20424;-84
2022/07/12 08:52:26;;;;;;;0.10;0.00;;;28.70;47.20;;;;;;6180497;28;20051;-84
2022/07/12 08:55:30;;;;;;;0.43;0.20;;;28.80;45.80;;;;;;6181274;28;20424;-83
2022/07/12 08:58:33;;;;;;;0.20;0.13;;;28.80;45.20;;;;;;6181940;28;20047;-84
2022/07/12 09:01:43;;;;;;;0.10;0.00;;;28.40;45.80;;;;;;6180330;28;20053;-83
2022/07/12 09:04:45;;;;;;;0.20;0.20;;;28.40;46.00;;;;;;6181478;28;20182;-83
2022/07/12 09:07:47;;;;;;;0.30;0.20;;;28.50;45.30;;;;;;6180810;28;20042;-83
2022/07/12 09:10:54;;;;;;;1.27;0.20;;;28.50;45.90;;;;;;6186155;28;20058;-85
2022/07/12 09:13:58;;;;;;;0.10;0.10;;;28.40;45.40;;;;;;6204854;28;20042;-84
2022/07/12 09:17:03;;;;;;;0.30;0.10;;;28.50;46.10;;;;;;6203832;28;20080;-85
2022/07/12 09:20:07;;;;;;;0.70;0.20;;;28.90;45.20;;;;;;6204825;28;20047;-83
2022/07/12 09:23:10;;;;;;;0.10;0.10;;;29.10;44.70;;;;;;6204594;28;20046;-84
2022/07/12 09:26:17;;;;;;;0.20;0.17;;;29.00;44.00;;;;;;6204790;28;20060;-85
2022/07/12 09:29:19;;;;;;;2.08;0.00;;;28.70;44.80;;;;;;6207207;28;20081;-82
2022/07/12 09:39:02;;;;;;;0.15;0.10;;;29.40;44.80;;;;;;6204534;28;20050;-83
2022/07/12 09:42:04;;;;;;;0.10;0.00;;;29.90;43.50;;;;;;6205345;28;20105;-84
2022/07/12 09:45:09;;;;;;;2.90;0.17;;;29.90;43.80;;;;;;6205029;28;20141;-84
2022/07/12 09:48:13;;;;;;;2.17;0.05;;;29.80;43.40;;;;;;6205426;28;20052;-85
2022/07/12 09:51:16;;;;;;;1.38;0.10;;;30.00;43.30;;;;;;6204841;28;20045;-85
2022/07/12 09:54:25;;;;;;;2.83;0.15;;;30.00;42.60;;;;;;6204663;28;20136;-85
2022/07/12 09:57:30;;;;;;;0.10;0.10;;;29.80;43.60;;;;;;6202084;28;20042;-85
2022/07/12 10:00:32;;;;;;;0.08;0.03;;;29.60;43.90;;;;;;6202372;28;20053;-84
2022/07/12 10:03:37;;;;;;;1.67;0.15;;;29.50;43.70;;;;;;6194022;28;20051;-83
2022/07/12 10:06:39;;;;;;;0.10;0.10;;;29.60;44.20;;;;;;6168292;28;20067;-86
2022/07/12 10:09:42;;;;;;;0.63;0.10;;;30.10;44.30;;;;;;6177772;28;20055;-86
2022/07/12 10:12:45;;;;;;;0.75;0.10;;;30.30;43.50;;;;;;6169429;28;20046;-83
2022/07/12 10:15:48;;;;;;;0.00;0.00;;;30.90;43.10;;;;;;6182147;28;20060;-84
2022/07/12 10:19:23;;;;;;;0.00;0.00;;;31.90;41.10;;;;;;6185752;28;20150;-84
2022/07/12 10:22:25;;;;;;;0.25;0.10;;;32.10;39.60;;;;;;6203585;28;20690;-84
2022/07/12 10:25:32;;;;;;;0.17;0.08;;;32.10;39.80;;;;;;6183691;28;20054;-82
2022/07/12 10:28:55;;;;;;;0.10;0.10;;;32.00;40.20;;;;;;6181961;28;20476;-80
2022/07/12 10:31:57;;;;;;;0.45;0.13;;;31.80;40.30;;;;;;6195461;28;20187;-82
2022/07/12 10:35:01;;;;;;;1.20;0.08;;;31.00;41.60;;;;;;6208787;28;20074;-84
2022/07/12 10:38:19;;;;;;;0.50;0.20;;;30.70;42.30;;;;;;6182261;28;20046;-84
2022/07/12 10:41:23;;;;;;;0.30;0.10;;;30.40;42.60;;;;;;6180393;28;20051;-83
2022/07/12 10:44:35;;;;;;;0.10;0.03;;;30.60;42.30;;;;;;6185970;28;20189;-83
2022/07/12 10:48:03;;;;;;;0.30;0.03;;;30.20;42.80;;;;;;6202339;28;20046;-86
2022/07/12 10:51:15;;;;;;;0.38;0.10;;;30.10;42.60;;;;;;6206222;28;20074;-81
2022/07/12 10:54:22;;;;;;;3.83;0.10;;;30.30;42.60;;;;;;6176489;28;20480;-83
2022/07/12 10:57:39;;;;;;;0.70;0.10;;;30.40;42.80;;;;;;6197959;28;20046;-83
2022/07/12 11:00:43;;;;;;;0.93;0.08;;;30.70;42.10;;;;;;6201309;28;20061;-86
2022/07/12 11:03:46;;;;;;;0.10;0.03;;;31.10;41.90;;;;;;6195894;28;20540;-83
2022/07/12 11:06:55;;;;;;;0.20;0.00;;;31.60;40.90;;;;;;6168273;28;20059;-84
2022/07/12 11:09:57;;;;;;;2.20;0.20;;;32.10;40.30;;;;;;6203716;28;20508;-84
2022/07/12 11:13:00;;;;;;;0.50;0.20;;;32.30;39.40;;;;;;6176988;28;20058;-83
2022/07/12 11:16:03;;;;;;;1.95;0.10;;;32.20;40.30;;;;;;6176058;28;20061;-82
2022/07/12 11:19:08;;;;;;;0.00;0.00;;;31.80;39.40;;;;;;6178820;28;20058;-84
2022/07/12 11:22:13;;;;;;;0.28;0.00;;;31.70;39.80;;;;;;6206084;28;20173;-84
2022/07/12 11:25:15;;;;;;;0.70;0.20;;;31.80;39.90;;;;;;6197400;28;20125;-86
2022/07/12 11:28:18;;;;;;;2.22;0.15;;;31.70;39.70;;;;;;6190309;28;20250;-84
2022/07/12 11:31:21;;;;;;;0.10;0.10;;;31.80;39.70;;;;;;6188293;28;20053;-85
2022/07/12 11:34:24;;;;;;;0.57;0.15;;;31.80;38.80;;;;;;6206512;28;20093;-85
2022/07/12 11:37:27;;;;;;;0.60;0.03;;;31.90;38.60;;;;;;6207543;28;20050;-84
2022/07/12 11:40:30;;;;;;;1.00;0.65;;;32.10;38.90;;;;;;6194677;28;20061;-84
2022/07/12 11:43:33;;;;;;;0.90;0.10;;;31.90;38.50;;;;;;6182513;28;20058;-84
2022/07/12 11:46:35;;;;;;;0.90;0.20;;;32.00;39.40;;;;;;6209966;28;20057;-83
2022/07/12 11:49:37;;;;;;;0.10;0.00;;;32.30;38.70;;;;;;6208447;28;20639;-85
2022/07/12 11:52:40;;;;;;;0.30;0.10;;;32.10;38.60;;;;;;6192654;28;20114;-84
2022/07/12 11:55:44;;;;;;;0.57;0.10;;;31.80;38.00;;;;;;6192116;28;20046;-83
2022/07/12 11:58:57;;;;;;;0.55;0.20;;;31.90;38.90;;;;;;6211678;28;20053;-84
2022/07/12 12:02:07;;;;;;;0.20;0.10;;;32.10;39.30;;;;;;6208257;28;20109;-84
2022/07/12 12:05:09;;;;;;;0.20;0.10;;;32.80;38.00;;;;;;6205163;28;20050;-83
2022/07/12 12:08:13;;;;;;;0.80;0.10;;;32.80;38.00;;;;;;6186794;28;20085;-83
2022/07/12 12:11:15;;;;;;;0.35;0.10;;;33.00;36.80;;;;;;6187762;28;20429;-83
2022/07/12 12:14:17;;;;;;;0.20;0.03;;;32.90;36.90;;;;;;6204517;28;20065;-83
2022/07/12 12:17:18;;;;;;;0.32;0.10;;;33.20;36.70;;;;;;6203730;28;20046;-84
2022/07/12 12:20:22;;;;;;;0.20;0.00;;;32.80;36.70;;;;;;6202069;28;20507;-82
2022/07/12 12:23:25;;;;;;;0.47;0.35;;;32.50;37.20;;;;;;6204071;28;20100;-83
2022/07/12 12:26:32;;;;;;;1.15;0.10;;;32.10;37.30;;;;;;6205371;28;20054;-83
2022/07/12 12:29:43;;;;;;;0.38;0.10;;;32.00;38.30;;;;;;6203126;28;20046;-83
2022/07/12 12:32:50;;;;;;;0.85;0.10;;;32.30;38.20;;;;;;6203080;28;20050;-83
2022/07/12 12:35:52;;;;;;;2.72;0.10;;;32.60;37.80;;;;;;6203400;28;20190;-82
2022/07/12 12:38:57;;;;;;;0.20;0.10;;;32.60;37.60;;;;;;6199030;23;20141;-81
2022/07/12 12:41:58;;;;;;;1.38;0.10;;;32.60;37.80;;;;;;6191272;28;20093;-80
2022/07/12 12:45:00;;;;;;;1.45;0.03;;;33.20;37.60;;;;;;6200104;28;20043;-80
2022/07/12 12:48:04;;;;;;;0.40;0.10;;;33.70;37.00;;;;;;6182485;28;20231;-80
2022/07/12 12:51:07;;;;;;;0.20;0.13;;;33.70;36.90;;;;;;6183128;28;20082;-81
2022/07/12 12:54:11;;;;;;;4.00;0.22;;;34.10;36.10;;;;;;6182019;28;20054;-82
2022/07/12 12:57:13;;;;;;;0.73;0.10;;;34.50;36.00;;;;;;6180727;28;20043;-80
2022/07/12 13:00:15;;;;;;;0.10;0.08;;;34.40;35.10;;;;;;6181781;28;20050;-81
2022/07/12 13:03:18;;;;;;;0.30;0.08;;;34.00;35.60;;;;;;6180587;28;20065;-80
2022/07/12 13:06:21;;;;;;;1.85;0.10;;;33.90;36.20;;;;;;6181570;28;20115;-81
2022/07/12 13:09:25;;;;;;;4.93;0.30;;;34.50;35.50;;;;;;6178645;28;20051;-81
2022/07/12 13:12:26;;;;;;;0.75;0.20;;;34.60;35.30;;;;;;6190030;28;20121;-83
2022/07/12 13:15:28;;;;;;;0.47;0.00;;;34.60;35.10;;;;;;6201016;28;20046;-81
2022/07/12 13:18:30;;;;;;;1.25;0.00;;;34.70;35.20;;;;;;6205359;28;20050;-81
2022/07/12 13:21:32;;;;;;;0.00;0.00;;;34.90;34.60;;;;;;6204143;28;20058;-80
2022/07/12 13:24:35;;;;;;;0.65;0.13;;;35.10;34.50;;;;;;6204849;28;20389;-81
2022/07/12 13:27:38;;;;;;;1.13;0.15;;;35.40;34.30;;;;;;6203509;28;20438;-84
2022/07/12 13:30:40;;;;;;;0.63;0.10;;;34.80;34.10;;;;;;6204482;28;20054;-83
2022/07/12 13:33:41;;;;;;;0.60;0.05;;;34.50;34.60;;;;;;6203431;28;20049;-84
2022/07/12 13:36:43;;;;;;;0.43;0.17;;;34.60;34.80;;;;;;6205203;28;20052;-83
2022/07/12 13:43:05;;;;;;;0.13;0.08;;;35.50;34.10;;;;;;6188007;28;20043;-80
2022/07/12 13:46:07;;;;;;;0.00;0.00;;;36.10;33.40;;;;;;6181101;28;20151;-85
2022/07/12 13:49:09;;;;;;;0.00;0.00;;;36.40;33.20;;;;;;6179352;28;20059;-79
2022/07/12 13:52:11;;;;;;;0.63;0.10;;;36.60;32.80;;;;;;6179483;28;20051;-80
2022/07/12 13:55:15;;;;;;;0.70;0.00;;;36.60;32.50;;;;;;6179411;28;20046;-81
2022/07/12 13:58:17;;;;;;;0.10;0.10;;;36.80;32.60;;;;;;6180417;28;20053;-81
2022/07/12 14:01:19;;;;;;;0.43;0.10;;;36.80;32.60;;;;;;6179258;28;20055;-80
2022/07/12 14:04:20;;;;;;;0.85;0.10;;;36.80;33.40;;;;;;6179468;28;20058;-82
2022/07/12 14:07:22;;;;;;;4.07;0.22;;;36.60;33.30;;;;;;6178438;28;20050;-82
2022/07/12 14:10:26;;;;;;;1.20;0.10;;;36.10;33.50;;;;;;6178533;28;20057;-82
2022/07/12 14:13:27;;;;;;;0.28;0.10;;;35.90;34.00;;;;;;6185063;28;20057;-81
2022/07/12 14:16:30;;;;;;;3.92;0.13;;;36.00;33.50;;;;;;6178611;28;20053;-80
2022/07/12 14:19:32;;;;;;;0.17;0.17;;;36.10;33.80;;;;;;6178433;28;20078;-80
2022/07/12 14:22:34;;;;;;;4.72;0.65;;;36.10;34.30;;;;;;6179069;28;20057;-81
2022/07/12 14:25:37;;;;;;;2.55;0.20;;;36.10;34.50;;;;;;6179053;28;20125;-81
2022/07/12 14:28:39;;;;;;;1.40;0.20;;;36.30;34.30;;;;;;6178499;28;20050;-81
2022/07/12 14:31:41;;;;;;;0.98;0.10;;;36.50;34.30;;;;;;6178949;28;20057;-81
2022/07/12 14:34:43;;;;;;;0.65;0.20;;;36.70;34.10;;;;;;6180057;28;20058;-81
2022/07/12 14:37:44;;;;;;;1.40;0.05;;;36.90;33.70;;;;;;6178137;28;20057;-81
2022/07/12 14:40:47;;;;;;;0.25;0.00;;;36.40;34.00;;;;;;6182669;28;20042;-82
2022/07/12 14:43:49;;;;;;;0.00;0.00;;;35.90;32.70;;;;;;6194740;28;20044;-81
2022/07/12 14:46:52;;;;;;;4.05;0.10;;;36.00;32.30;;;;;;6202410;28;20604;-80
2022/07/12 14:49:54;;;;;;;0.10;0.00;;;36.20;32.00;;;;;;6202756;28;20488;-81
2022/07/12 14:52:56;;;;;;;0.20;0.10;;;36.20;32.30;;;;;;6204037;28;20515;-81
2022/07/12 14:55:59;;;;;;;0.08;0.03;;;36.00;31.70;;;;;;6202257;28;20056;-81
2022/07/12 14:59:01;;;;;;;2.00;0.17;;;35.70;32.60;;;;;;6203349;28;20201;-80
2022/07/12 15:02:03;;;;;;;0.20;0.20;;;35.80;33.80;;;;;;6201450;28;20496;-80
2022/07/12 15:05:07;;;;;;;9.75;0.70;;;36.00;33.90;;;;;;6200535;28;20651;-81
2022/07/12 15:08:09;;;;;;;21.55;1.02;;;36.30;33.60;;;;;;6200605;28;20578;-80
2022/07/12 15:11:12;;;;;;;2.38;0.10;;;36.70;33.40;;;;;;6191329;28;20054;-82
2022/07/12 15:14:14;;;;;;;2.00;0.38;;;36.90;32.80;;;;;;6197642;28;20189;-80
2022/07/12 15:17:18;;;;;;;3.40;0.30;;;37.20;33.00;;;;;;6184422;28;20083;-80
2022/07/12 15:20:20;;;;;;;4.07;0.70;;;37.20;33.00;;;;;;6184346;28;20085;-80
2022/07/12 15:23:22;;;;;;;3.03;0.20;;;37.30;33.10;;;;;;6200367;28;20146;-81
2022/07/12 15:26:25;;;;;;;0.50;0.20;;;37.10;33.00;;;;;;6199052;28;20054;-78
2022/07/12 15:29:27;;;;;;;0.15;0.00;;;37.10;33.20;;;;;;6198126;28;20049;-81
2022/07/12 15:32:29;;;;;;;0.00;0.00;;;37.00;31.60;;;;;;6198863;28;20070;-80
2022/07/12 15:35:30;;;;;;;0.35;0.10;;;36.70;31.50;;;;;;6198238;28;20042;-79
2022/07/12 15:38:33;;;;;;;0.60;0.00;;;36.40;32.00;;;;;;6198411;28;20057;-78
2022/07/12 15:41:36;;;;;;;0.00;0.00;;;36.20;32.00;;;;;;6190374;28;20361;-80
2022/07/12 15:44:38;;;;;;;3.15;0.10;;;36.20;31.80;;;;;;6179205;28;20047;-79
2022/07/12 15:47:40;;;;;;;0.10;0.10;;;35.90;32.00;;;;;;6173786;28;20707;-82
2022/07/12 15:50:42;;;;;;;0.30;0.10;;;35.70;32.10;;;;;;6174405;28;20077;-82
2022/07/12 15:53:43;;;;;;;0.13;0.10;;;35.50;32.10;;;;;;6173959;28;20047;-79
2022/07/12 15:56:46;;;;;;;0.35;0.10;;;35.80;31.90;;;;;;6173849;28;20057;-81
2022/07/12 15:59:48;;;;;;;0.30;0.10;;;35.80;31.50;;;;;;6173330;28;20501;-81
2022/07/12 16:02:50;;;;;;;0.93;0.10;;;35.30;32.00;;;;;;6174817;28;20055;-80
2022/07/12 16:05:53;;;;;;;0.45;0.15;;;35.00;32.00;;;;;;6178747;28;20061;-79
2022/07/12 16:08:55;;;;;;;2.03;0.17;;;34.60;32.30;;;;;;6185884;28;20394;-80
2022/07/12 16:11:58;;;;;;;0.13;0.03;;;34.50;32.80;;;;;;6188053;28;20658;-80
2022/07/12 16:15:00;;;;;;;0.98;0.20;;;34.10;33.00;;;;;;6183972;28;20067;-82